Time;durP1;ratioP1;P1;durP2;ratioP2;P2;SDS_P1;SDS_P2;PMS_P1;PMS_P2;Temp;Humidity;BMP_temperature;BMP_pressure;BME280_temperature;BME280_humidity;BME280_pressure;Samples;Min_cycle;Max_cycle;Signal;HPM_P1;HPM_P2
2021/04/03 00:00:50;;;;;;;10.40;4.50;;;8.00;99.90;;;;;;5093352;28;20160;-69
2021/04/03 00:03:17;;;;;;;7.95;5.07;;;8.10;99.90;;;;;;5093665;28;20437;-69
2021/04/03 00:05:43;;;;;;;12.02;4.85;;;8.10;99.90;;;;;;5093600;28;20175;-69
2021/04/03 00:08:10;;;;;;;9.50;4.20;;;8.30;99.90;;;;;;5093248;28;20675;-69
2021/04/03 00:10:47;;;;;;;9.43;4.57;;;8.30;99.90;;;;;;5093325;28;20942;-69
2021/04/03 00:13:14;;;;;;;11.10;4.55;;;8.20;99.90;;;;;;5093528;28;20184;-69
2021/04/03 00:15:40;;;;;;;11.93;5.80;;;7.80;99.90;;;;;;5093172;28;20202;-69
2021/04/03 00:18:06;;;;;;;13.77;5.47;;;7.60;99.90;;;;;;5093245;28;20163;-69
2021/04/03 00:20:33;;;;;;;12.30;4.53;;;7.70;99.90;;;;;;5092984;28;20211;-69
2021/04/03 00:22:59;;;;;;;12.20;4.53;;;7.50;99.90;;;;;;5093341;28;20195;-69
2021/04/03 00:25:25;;;;;;;9.43;3.83;;;7.40;99.90;;;;;;5093129;28;20636;-69
2021/04/03 00:27:51;;;;;;;16.23;3.43;;;7.60;99.90;;;;;;5093701;28;20405;-69
2021/04/03 00:30:18;;;;;;;9.90;3.20;;;7.70;99.90;;;;;;5092942;28;20217;-69
2021/04/03 00:32:58;;;;;;;15.60;5.20;;;7.60;99.90;;;;;;5092858;28;20911;-69
2021/04/03 00:35:29;;;;;;;11.45;3.92;;;7.50;99.90;;;;;;5093031;28;20612;-69
2021/04/03 00:37:56;;;;;;;13.23;3.60;;;7.60;99.90;;;;;;5093309;28;20159;-69
2021/04/03 00:40:26;;;;;;;9.35;3.50;;;7.10;99.90;;;;;;5092923;28;20225;-69
2021/04/03 00:42:52;;;;;;;12.73;3.25;;;7.10;99.90;;;;;;5093057;28;20191;-69
2021/04/03 00:45:20;;;;;;;11.63;4.00;;;7.60;99.90;;;;;;5093055;28;20578;-69
2021/04/03 00:47:46;;;;;;;11.20;2.60;;;6.90;99.90;;;;;;5093281;28;20386;-69
2021/04/03 00:50:14;;;;;;;9.47;3.80;;;7.20;99.90;;;;;;5091691;28;20180;-69
2021/04/03 00:52:40;;;;;;;14.02;4.18;;;7.20;99.90;;;;;;5092768;28;20617;-69
2021/04/03 00:55:13;;;;;;;15.23;5.10;;;6.90;99.90;;;;;;5093153;28;20628;-69
2021/04/03 00:57:39;;;;;;;10.05;3.35;;;7.30;99.90;;;;;;5093234;28;20164;-69
2021/04/03 01:00:07;;;;;;;9.73;3.17;;;7.30;99.90;;;;;;5093167;28;20652;-69
2021/04/03 01:02:32;;;;;;;10.88;4.90;;;7.30;99.90;;;;;;5092913;28;20195;-69
2021/04/03 01:04:59;;;;;;;6.03;3.40;;;7.50;99.90;;;;;;5093075;28;20632;-69
2021/04/03 01:07:24;;;;;;;12.25;4.05;;;7.40;99.90;;;;;;5092509;28;20168;-69
2021/04/03 01:09:50;;;;;;;14.27;4.00;;;7.40;99.90;;;;;;5093032;28;20648;-69
2021/04/03 01:13:12;;;;;;;14.73;4.63;;;7.50;99.90;;;;;;5093105;28;20187;-69
2021/04/03 01:16:11;;;;;;;12.27;4.15;;;7.40;99.90;;;;;;5013441;28;20193;-69
2021/04/03 01:18:58;;;;;;;15.15;4.00;;;6.90;99.90;;;;;;5015136;28;20224;-68
2021/04/03 01:21:54;;;;;;;14.15;4.45;;;7.10;99.90;;;;;;5092621;28;20529;-69
2021/04/03 01:24:57;;;;;;;9.95;4.10;;;7.20;99.90;;;;;;5096734;28;20592;-69
2021/04/03 01:27:24;;;;;;;16.88;5.53;;;7.20;99.90;;;;;;5096519;28;20171;-69
2021/04/03 01:30:11;;;;;;;13.10;4.50;;;7.40;99.90;;;;;;5096477;28;20250;-69
2021/04/03 01:32:45;;;;;;;16.20;4.65;;;7.40;99.90;;;;;;5096059;28;20191;-68
2021/04/03 01:35:15;;;;;;;15.45;4.25;;;7.50;99.90;;;;;;5096231;28;20579;-69
2021/04/03 01:38:05;;;;;;;14.93;4.68;;;7.50;99.90;;;;;;5096161;28;20181;-69
2021/04/03 01:40:31;;;;;;;16.60;4.75;;;7.20;99.90;;;;;;5095829;28;20205;-69
2021/04/03 01:43:06;;;;;;;13.93;4.22;;;7.10;99.90;;;;;;5094612;28;20209;-69
2021/04/03 01:45:33;;;;;;;16.05;5.38;;;7.40;99.90;;;;;;5096208;28;20558;-69
2021/04/03 01:48:01;;;;;;;18.92;4.55;;;7.30;99.90;;;;;;5096120;28;20186;-69
2021/04/03 01:50:28;;;;;;;12.95;5.00;;;6.90;99.90;;;;;;5095839;28;20175;-69
2021/04/03 01:52:54;;;;;;;15.32;4.68;;;6.90;99.90;;;;;;5095808;28;20221;-69
2021/04/03 01:55:20;;;;;;;15.50;6.07;;;7.00;99.90;;;;;;5095847;28;20536;-69
2021/04/03 01:57:49;;;;;;;23.30;5.27;;;7.10;99.90;;;;;;5096096;28;20172;-69
2021/04/03 02:00:20;;;;;;;16.63;4.55;;;6.80;99.90;;;;;;5095997;28;20441;-69
2021/04/03 02:02:47;;;;;;;13.27;4.63;;;6.90;99.90;;;;;;5095557;28;20662;-69
2021/04/03 02:05:15;;;;;;;18.55;5.10;;;7.00;99.90;;;;;;5095624;28;20168;-69
2021/04/03 02:07:44;;;;;;;17.20;5.28;;;6.70;99.90;;;;;;5095463;28;20229;-69
2021/04/03 02:10:11;;;;;;;16.13;4.32;;;7.10;99.90;;;;;;5095819;28;20179;-69
2021/04/03 02:12:39;;;;;;;16.15;5.72;;;6.70;99.90;;;;;;5095405;28;20230;-69
2021/04/03 02:15:10;;;;;;;16.52;6.00;;;7.10;99.90;;;;;;5095620;28;20636;-69
2021/04/03 02:17:38;;;;;;;12.30;4.45;;;7.00;99.90;;;;;;5095646;28;20166;-69
2021/04/03 02:20:08;;;;;;;19.08;6.45;;;6.90;99.90;;;;;;5095143;28;20226;-69
2021/04/03 02:22:35;;;;;;;28.17;11.68;;;7.00;99.90;;;;;;5095103;28;20186;-69
2021/04/03 02:25:04;;;;;;;24.45;6.00;;;7.30;99.90;;;;;;5094771;28;20162;-68
2021/04/03 02:27:30;;;;;;;15.48;4.95;;;7.10;99.90;;;;;;5095213;28;20171;-69
2021/04/03 02:29:56;;;;;;;17.07;5.87;;;7.10;99.90;;;;;;5095378;28;20549;-69
2021/04/03 02:32:23;;;;;;;22.85;5.25;;;7.00;99.90;;;;;;5094892;28;20671;-69
2021/04/03 02:34:48;;;;;;;12.52;5.45;;;6.90;99.90;;;;;;5095121;28;20586;-69
2021/04/03 02:37:14;;;;;;;13.53;4.70;;;6.60;99.90;;;;;;5095169;28;20175;-69
2021/04/03 02:39:41;;;;;;;7.80;4.40;;;7.00;99.90;;;;;;5095183;28;20225;-69
2021/04/03 02:42:16;;;;;;;18.27;3.97;;;7.10;99.90;;;;;;5093471;28;20562;-69
2021/04/03 02:45:04;;;;;;;15.02;4.47;;;7.30;99.90;;;;;;5094793;28;20150;-69
2021/04/03 02:47:45;;;;;;;20.45;5.03;;;6.80;99.90;;;;;;5094804;28;20631;-69
2021/04/03 02:50:17;;;;;;;12.00;4.90;;;6.80;99.90;;;;;;5094667;28;20175;-69
2021/04/03 02:52:48;;;;;;;11.02;4.72;;;6.90;99.90;;;;;;5095160;28;20552;-69
2021/04/03 02:55:14;;;;;;;15.90;4.70;;;7.00;99.90;;;;;;5095039;28;20148;-69
2021/04/03 02:57:40;;;;;;;14.83;4.37;;;7.20;99.90;;;;;;5094472;28;20175;-69
2021/04/03 03:00:07;;;;;;;12.38;3.30;;;7.20;99.90;;;;;;5094719;28;20282;-69
2021/04/03 03:02:34;;;;;;;17.02;3.47;;;7.20;99.90;;;;;;5094616;28;20192;-69
2021/04/03 03:05:02;;;;;;;9.60;3.20;;;7.00;99.90;;;;;;5094270;28;20536;-69
2021/04/03 03:07:28;;;;;;;15.13;4.40;;;7.10;99.90;;;;;;5094378;28;20171;-69
2021/04/03 03:09:53;;;;;;;8.03;3.00;;;7.20;99.90;;;;;;5094431;28;20243;-69
2021/04/03 03:12:21;;;;;;;13.23;3.50;;;7.30;99.90;;;;;;5094146;28;20425;-69
2021/04/03 03:14:48;;;;;;;13.98;4.13;;;7.00;99.90;;;;;;5094282;28;20168;-69
2021/04/03 03:17:14;;;;;;;14.75;4.20;;;7.10;99.90;;;;;;5094075;28;20171;-69
2021/04/03 03:19:40;;;;;;;11.55;3.53;;;7.20;99.90;;;;;;5094461;28;20183;-69
2021/04/03 03:22:07;;;;;;;13.75;4.00;;;7.10;99.90;;;;;;5093832;28;20167;-69
2021/04/03 03:24:33;;;;;;;10.48;3.65;;;7.20;99.90;;;;;;5093925;28;20168;-69
2021/04/03 03:27:01;;;;;;;11.25;3.30;;;7.20;99.90;;;;;;5093855;28;20167;-69
2021/04/03 03:29:28;;;;;;;10.98;3.47;;;7.30;99.90;;;;;;5093962;28;20171;-69
2021/04/03 03:31:54;;;;;;;16.05;3.35;;;7.20;99.90;;;;;;5093984;28;20172;-69
2021/04/03 03:34:20;;;;;;;13.13;2.95;;;7.10;99.90;;;;;;5093817;28;20639;-69
2021/04/03 03:36:46;;;;;;;9.93;3.00;;;7.00;99.90;;;;;;5093458;28;20178;-69
2021/04/03 03:39:12;;;;;;;17.10;4.50;;;6.90;99.90;;;;;;5092262;28;20203;-69
2021/04/03 03:41:39;;;;;;;9.23;3.40;;;6.70;99.90;;;;;;5094049;28;20430;-69
2021/04/03 03:44:06;;;;;;;11.68;3.50;;;6.40;99.90;;;;;;5094058;28;20408;-69
2021/04/03 03:46:32;;;;;;;8.93;3.30;;;7.00;99.90;;;;;;5094224;28;20242;-69
2021/04/03 03:48:58;;;;;;;14.07;4.25;;;7.00;99.90;;;;;;5093758;28;20167;-69
2021/04/03 03:51:24;;;;;;;11.90;3.22;;;6.90;99.90;;;;;;5093865;28;20203;-69
2021/04/03 03:53:49;;;;;;;8.13;2.30;;;6.70;99.90;;;;;;5093424;28;20561;-69
2021/04/03 03:56:15;;;;;;;10.93;2.50;;;6.90;99.90;;;;;;5093439;28;20183;-69
2021/04/03 03:58:42;;;;;;;9.25;2.20;;;6.60;99.90;;;;;;5093368;28;20222;-69
2021/04/03 04:01:08;;;;;;;9.38;2.15;;;6.80;99.90;;;;;;5093717;28;20168;-69
2021/04/03 04:03:34;;;;;;;10.17;2.30;;;6.90;99.90;;;;;;5093744;28;20705;-69
2021/04/03 04:06:00;;;;;;;7.47;2.30;;;7.10;99.90;;;;;;5093795;28;20167;-69
2021/04/03 04:08:26;;;;;;;11.65;2.05;;;7.10;99.90;;;;;;5093370;28;20396;-69
2021/04/03 04:10:52;;;;;;;16.87;2.53;;;7.30;99.90;;;;;;5093813;28;20514;-69
2021/04/03 04:13:17;;;;;;;10.93;2.25;;;7.30;99.90;;;;;;5093295;28;20188;-69
2021/04/03 04:15:43;;;;;;;9.87;1.90;;;7.40;99.90;;;;;;5093286;28;20159;-69
2021/04/03 04:18:09;;;;;;;9.57;2.23;;;7.10;99.90;;;;;;5093165;28;20629;-69
2021/04/03 04:20:34;;;;;;;10.93;2.70;;;7.20;99.90;;;;;;5093185;28;20226;-69
2021/04/03 04:23:00;;;;;;;16.13;2.87;;;7.00;99.90;;;;;;5093182;28;20258;-69
2021/04/03 04:25:26;;;;;;;9.87;2.57;;;7.10;99.90;;;;;;5093102;28;20195;-69
2021/04/03 04:27:53;;;;;;;16.08;2.78;;;7.00;99.90;;;;;;5092982;28;20590;-69
2021/04/03 04:30:19;;;;;;;12.50;2.60;;;7.20;99.90;;;;;;5094107;28;20220;-69
2021/04/03 04:32:45;;;;;;;8.65;2.15;;;7.20;99.90;;;;;;5094328;28;20187;-69
2021/04/03 04:35:12;;;;;;;8.68;2.13;;;7.30;99.90;;;;;;5094146;28;20174;-69
2021/04/03 04:37:39;;;;;;;6.85;2.10;;;6.90;99.90;;;;;;5093825;28;20171;-69
2021/04/03 04:40:07;;;;;;;9.25;2.53;;;6.90;99.90;;;;;;5093836;28;20221;-69
2021/04/03 04:42:32;;;;;;;9.82;2.50;;;6.90;99.90;;;;;;5092561;28;20183;-69
2021/04/03 04:44:58;;;;;;;17.60;2.53;;;6.70;99.90;;;;;;5093691;28;20699;-69
2021/04/03 04:47:24;;;;;;;6.63;2.43;;;6.90;99.90;;;;;;5093269;28;20160;-69
2021/04/03 04:49:50;;;;;;;11.60;2.83;;;7.20;99.90;;;;;;5097532;28;20483;-69
2021/04/03 04:52:16;;;;;;;7.75;2.83;;;7.30;99.90;;;;;;5097717;28;20403;-69
2021/04/03 04:54:42;;;;;;;7.10;2.27;;;7.30;99.90;;;;;;5098014;28;20262;-69
2021/04/03 04:57:07;;;;;;;7.57;2.27;;;7.10;99.90;;;;;;5097005;28;20409;-69
2021/04/03 04:59:33;;;;;;;5.47;2.87;;;6.90;99.90;;;;;;5096629;28;20195;-69
2021/04/03 05:01:59;;;;;;;11.10;2.47;;;6.80;99.90;;;;;;5096581;28;20171;-69
2021/04/03 05:04:24;;;;;;;10.83;2.40;;;7.00;99.90;;;;;;5096615;28;20183;-69
2021/04/03 05:06:50;;;;;;;21.33;14.90;;;6.90;99.90;;;;;;5096805;28;20613;-69
2021/04/03 05:09:15;;;;;;;8.47;3.37;;;7.10;99.90;;;;;;5096458;28;20195;-69
2021/04/03 05:11:41;;;;;;;15.00;4.07;;;7.10;99.90;;;;;;5096543;28;20178;-69
2021/04/03 05:14:06;;;;;;;15.23;2.97;;;6.80;99.90;;;;;;5096485;28;20195;-69
2021/04/03 05:16:32;;;;;;;17.93;4.13;;;6.70;99.90;;;;;;5096669;28;20228;-68
2021/04/03 05:18:57;;;;;;;14.40;3.43;;;6.40;99.90;;;;;;5096822;28;20728;-69
2021/04/03 05:21:23;;;;;;;15.47;4.13;;;6.30;99.90;;;;;;5096545;28;20163;-69
2021/04/03 05:23:48;;;;;;;9.40;2.83;;;6.30;99.90;;;;;;5096373;28;20182;-69
2021/04/03 05:26:14;;;;;;;15.10;3.20;;;6.70;99.90;;;;;;5096486;28;20172;-69
2021/04/03 05:28:39;;;;;;;8.77;3.57;;;6.60;99.90;;;;;;5096632;28;20171;-69
2021/04/03 05:31:05;;;;;;;11.07;3.27;;;6.70;99.90;;;;;;5096557;28;20171;-69
2021/04/03 05:33:30;;;;;;;9.00;3.33;;;7.00;99.90;;;;;;5096063;28;20372;-69
2021/04/03 05:35:56;;;;;;;12.37;3.47;;;7.20;99.90;;;;;;5096351;28;20174;-69
2021/04/03 05:38:22;;;;;;;12.77;3.60;;;7.10;99.90;;;;;;5094882;28;20180;-69
2021/04/03 05:40:47;;;;;;;12.53;3.17;;;7.10;99.90;;;;;;5096084;28;20737;-68
2021/04/03 05:43:15;;;;;;;9.63;2.90;;;7.30;99.90;;;;;;5096403;28;20281;-69
2021/04/03 05:45:42;;;;;;;13.68;4.40;;;7.40;99.90;;;;;;5096226;28;20195;-69
2021/04/03 05:48:08;;;;;;;18.10;3.75;;;7.30;99.90;;;;;;5095920;28;20242;-68
2021/04/03 05:50:36;;;;;;;16.53;4.40;;;7.30;99.90;;;;;;5095993;28;20611;-69
2021/04/03 05:53:02;;;;;;;14.07;2.60;;;6.90;99.90;;;;;;5095856;28;20231;-68
2021/04/03 05:55:28;;;;;;;12.80;3.83;;;6.60;99.90;;;;;;5096003;28;20190;-68
2021/04/03 05:57:54;;;;;;;26.17;4.27;;;6.40;99.90;;;;;;5096948;28;20644;-68
2021/04/03 06:00:20;;;;;;;26.27;4.60;;;6.40;99.90;;;;;;5095161;28;20220;-68
2021/04/03 06:02:46;;;;;;;17.30;3.75;;;6.80;99.90;;;;;;5095716;28;20188;-69
2021/04/03 06:05:12;;;;;;;13.73;3.43;;;6.80;99.90;;;;;;5095314;28;20177;-68
2021/04/03 06:07:40;;;;;;;11.13;3.90;;;7.20;99.90;;;;;;5095191;28;20425;-68
2021/04/03 06:10:06;;;;;;;15.82;3.80;;;7.30;99.90;;;;;;5095292;28;20147;-69
2021/04/03 06:12:42;;;;;;;10.40;3.20;;;7.40;99.90;;;;;;5095169;28;20203;-68
2021/04/03 06:15:30;;;;;;;20.88;4.22;;;7.30;99.90;;;;;;5095427;28;20167;-69
2021/04/03 06:17:57;;;;;;;14.90;4.65;;;7.30;99.90;;;;;;5081102;28;20187;-69
2021/04/03 06:20:40;;;;;;;14.90;3.70;;;7.30;99.90;;;;;;5095194;28;20196;-69
2021/04/03 06:23:08;;;;;;;16.38;4.20;;;7.30;99.90;;;;;;5095489;28;20256;-69
2021/04/03 06:25:57;;;;;;;22.65;4.13;;;7.30;99.90;;;;;;5095065;28;20217;-69
2021/04/03 06:28:28;;;;;;;11.70;3.35;;;7.60;99.90;;;;;;5084905;28;20266;-69
2021/04/03 06:30:57;;;;;;;15.07;4.13;;;7.50;99.90;;;;;;5094838;28;20164;-69
2021/04/03 06:33:23;;;;;;;19.52;4.15;;;7.60;99.90;;;;;;5094885;28;20180;-69
2021/04/03 06:36:07;;;;;;;10.30;3.23;;;7.70;99.90;;;;;;5095262;28;20164;-69
2021/04/03 06:38:33;;;;;;;14.18;3.20;;;7.70;99.90;;;;;;5095000;28;20195;-69
2021/04/03 06:41:19;;;;;;;10.60;3.20;;;6.90;99.90;;;;;;5095493;28;20191;-69
2021/04/03 06:44:00;;;;;;;8.40;3.10;;;7.10;99.90;;;;;;5095262;28;20755;-70
2021/04/03 06:46:26;;;;;;;19.17;3.10;;;6.70;99.90;;;;;;5094999;28;20290;-69
2021/04/03 06:48:52;;;;;;;10.13;4.13;;;6.80;99.90;;;;;;5094921;28;20175;-69
2021/04/03 06:51:20;;;;;;;12.05;3.92;;;6.60;99.90;;;;;;5095078;28;20167;-69
2021/04/03 06:53:48;;;;;;;12.32;4.32;;;7.10;99.90;;;;;;5094778;28;20676;-68
2021/04/03 06:56:14;;;;;;;10.60;3.38;;;7.40;99.90;;;;;;5095156;28;20545;-69
2021/04/03 06:58:47;;;;;;;22.30;4.28;;;7.20;99.90;;;;;;5095073;28;20199;-70
2021/04/03 07:01:18;;;;;;;18.77;4.53;;;7.20;99.90;;;;;;5094826;28;20162;-69
2021/04/03 07:03:51;;;;;;;13.55;3.90;;;7.40;99.90;;;;;;5094901;28;20187;-70
2021/04/03 07:06:20;;;;;;;17.23;3.45;;;7.60;99.90;;;;;;5094712;28;20197;-69
2021/04/03 07:08:46;;;;;;;18.75;4.43;;;7.10;99.90;;;;;;5094910;28;20264;-69
2021/04/03 07:11:12;;;;;;;14.65;4.35;;;6.90;99.90;;;;;;5094206;28;20172;-70
2021/04/03 07:13:38;;;;;;;12.97;3.97;;;7.20;99.90;;;;;;5093789;28;20266;-69
2021/04/03 07:16:07;;;;;;;9.40;3.90;;;7.30;99.90;;;;;;5094820;28;20172;-70
2021/04/03 07:18:34;;;;;;;13.82;4.93;;;7.90;99.90;;;;;;5094212;28;20178;-69
2021/04/03 07:21:01;;;;;;;16.60;3.95;;;7.40;99.90;;;;;;5094340;28;20175;-69
2021/04/03 07:23:27;;;;;;;9.70;3.90;;;7.70;99.90;;;;;;5094087;28;20650;-69
2021/04/03 07:25:57;;;;;;;16.67;4.43;;;8.00;99.90;;;;;;5093873;28;20172;-70
2021/04/03 07:28:22;;;;;;;20.52;3.78;;;8.00;99.90;;;;;;5094236;28;20175;-70
2021/04/03 07:30:48;;;;;;;11.30;3.03;;;8.20;99.90;;;;;;5094300;28;20175;-69
2021/04/03 07:33:23;;;;;;;14.63;4.27;;;8.20;99.90;;;;;;5093696;28;20191;-69
2021/04/03 07:35:54;;;;;;;17.30;5.07;;;8.30;99.90;;;;;;5093839;28;20409;-70
2021/04/03 07:38:28;;;;;;;12.18;4.50;;;8.30;99.90;;;;;;5094486;28;20179;-70
2021/04/03 07:40:59;;;;;;;14.07;4.03;;;8.30;99.90;;;;;;5093531;28;20159;-69
2021/04/03 07:43:37;;;;;;;12.93;3.33;;;8.30;99.90;;;;;;5094213;28;20710;-68
2021/04/03 07:46:15;;;;;;;19.02;4.30;;;8.30;99.90;;;;;;5094209;28;20199;-69
2021/04/03 07:48:51;;;;;;;15.25;4.43;;;8.30;99.90;;;;;;5094331;28;20224;-69
2021/04/03 07:51:23;;;;;;;13.20;3.20;;;8.40;99.90;;;;;;5093716;28;20520;-68
2021/04/03 07:53:59;;;;;;;15.02;4.03;;;8.30;99.90;;;;;;5093664;28;20198;-68
2021/04/03 07:56:51;;;;;;;17.10;2.60;;;8.00;99.90;;;;;;5094023;28;20208;-70
2021/04/03 07:59:17;;;;;;;20.65;5.05;;;8.40;99.90;;;;;;5093628;28;20194;-70
2021/04/03 08:01:45;;;;;;;16.90;2.90;;;8.70;99.90;;;;;;5093843;28;20242;-70
2021/04/03 08:04:10;;;;;;;8.93;2.60;;;8.60;99.90;;;;;;5093205;28;20443;-70
2021/04/03 08:06:39;;;;;;;14.93;2.70;;;8.70;99.90;;;;;;5093681;28;20187;-69
2021/04/03 08:09:10;;;;;;;10.60;3.75;;;8.60;99.90;;;;;;5093308;28;20237;-70
2021/04/03 08:11:36;;;;;;;19.08;3.97;;;8.60;99.90;;;;;;5093371;28;20494;-69
2021/04/03 08:14:02;;;;;;;9.63;3.90;;;8.50;99.90;;;;;;5093451;28;20203;-69
2021/04/03 08:16:29;;;;;;;14.10;4.07;;;8.60;99.90;;;;;;5094349;28;20194;-69
2021/04/03 08:18:57;;;;;;;14.60;3.58;;;8.80;99.90;;;;;;5093683;28;20457;-69
2021/04/03 08:21:24;;;;;;;16.05;3.38;;;9.00;99.90;;;;;;5093392;28;20195;-70
2021/04/03 08:23:53;;;;;;;19.83;4.60;;;9.20;99.90;;;;;;5096190;28;20192;-70
2021/04/03 08:26:20;;;;;;;11.52;3.30;;;9.10;99.90;;;;;;5100466;28;20170;-70
2021/04/03 08:28:46;;;;;;;14.17;3.63;;;8.90;99.90;;;;;;5100548;28;20547;-69
2021/04/03 08:31:20;;;;;;;11.32;3.75;;;8.90;99.90;;;;;;5100309;28;20486;-68
2021/04/03 08:33:48;;;;;;;19.10;4.28;;;8.90;99.90;;;;;;5100403;28;20204;-68
2021/04/03 08:36:23;;;;;;;20.77;4.13;;;9.10;99.90;;;;;;5099879;28;20179;-68
2021/04/03 08:38:48;;;;;;;14.27;3.70;;;9.80;99.90;;;;;;5099262;28;20159;-69
2021/04/03 08:41:23;;;;;;;14.03;3.90;;;9.70;99.90;;;;;;5099776;28;20235;-68
2021/04/03 08:43:50;;;;;;;13.50;4.40;;;10.00;99.90;;;;;;5099471;28;20183;-68
2021/04/03 08:46:16;;;;;;;19.35;3.90;;;10.20;99.90;;;;;;5099582;28;20434;-70
2021/04/03 08:48:46;;;;;;;8.73;3.70;;;10.40;99.90;;;;;;5099261;28;20171;-68
2021/04/03 08:51:13;;;;;;;9.73;3.40;;;10.40;99.90;;;;;;5099416;28;20379;-68
2021/04/03 08:53:41;;;;;;;12.00;3.77;;;10.40;99.90;;;;;;5099313;28;20470;-69
2021/04/03 08:56:08;;;;;;;16.30;3.90;;;10.50;99.90;;;;;;5099351;28;20459;-68
2021/04/03 08:58:36;;;;;;;15.10;4.17;;;10.40;99.90;;;;;;5099379;28;20405;-68
2021/04/03 09:01:04;;;;;;;17.43;4.27;;;10.50;99.90;;;;;;5099124;28;20406;-70
2021/04/03 09:03:30;;;;;;;9.50;2.57;;;10.00;99.90;;;;;;5099210;28;20438;-68
2021/04/03 09:05:56;;;;;;;8.63;3.20;;;10.40;99.90;;;;;;5097855;28;20432;-68
2021/04/03 09:08:23;;;;;;;17.10;3.80;;;10.10;99.90;;;;;;5099096;28;20935;-69
2021/04/03 09:10:56;;;;;;;15.80;4.57;;;10.10;99.90;;;;;;5099160;28;20242;-70
2021/04/03 09:13:22;;;;;;;13.07;3.40;;;10.40;99.90;;;;;;5099690;28;20536;-69
2021/04/03 09:15:48;;;;;;;11.73;3.90;;;10.70;99.90;;;;;;5099154;28;20412;-69
2021/04/03 09:18:15;;;;;;;14.97;4.10;;;10.90;99.90;;;;;;5099073;28;20191;-69
2021/04/03 09:20:48;;;;;;;20.33;3.97;;;11.10;99.90;;;;;;5098987;28;20452;-70
2021/04/03 09:23:14;;;;;;;15.80;2.93;;;11.10;99.90;;;;;;5098995;28;20424;-69
2021/04/03 09:25:40;;;;;;;16.10;3.63;;;10.30;99.90;;;;;;5099175;28;20815;-70
2021/04/03 09:28:12;;;;;;;12.23;4.47;;;9.50;99.90;;;;;;5098796;28;20164;-69
2021/04/03 09:30:40;;;;;;;17.73;4.17;;;9.50;99.90;;;;;;5098713;28;20254;-69
2021/04/03 09:33:22;;;;;;;15.20;3.83;;;9.90;99.90;;;;;;5098943;28;20427;-69
2021/04/03 09:35:50;;;;;;;11.57;3.53;;;9.40;99.90;;;;;;5096313;28;20378;-69
2021/04/03 09:38:28;;;;;;;12.80;3.45;;;9.40;99.90;;;;;;5094435;28;20410;-69
2021/04/03 09:40:53;;;;;;;10.07;3.73;;;10.70;99.90;;;;;;5096089;28;20183;-69
2021/04/03 09:43:19;;;;;;;13.63;4.60;;;10.40;99.90;;;;;;5095616;28;20470;-69
2021/04/03 09:45:44;;;;;;;13.63;3.37;;;10.80;99.90;;;;;;5095383;28;20167;-69
2021/04/03 09:48:11;;;;;;;11.73;3.00;;;10.70;99.90;;;;;;5095470;28;20168;-69
2021/04/03 09:50:40;;;;;;;15.80;3.80;;;10.60;99.90;;;;;;5095659;28;20521;-69
2021/04/03 09:53:11;;;;;;;17.17;3.83;;;11.10;99.90;;;;;;5095352;28;20524;-69
2021/04/03 09:55:37;;;;;;;15.70;3.47;;;10.90;99.90;;;;;;5095005;28;20420;-69
2021/04/03 09:58:03;;;;;;;11.70;4.70;;;10.20;99.90;;;;;;5095100;28;20910;-69
2021/04/03 10:00:29;;;;;;;18.50;4.53;;;10.50;99.90;;;;;;5095478;28;20226;-68
2021/04/03 10:02:55;;;;;;;16.00;4.20;;;10.20;99.90;;;;;;5094938;28;20425;-69
2021/04/03 10:05:21;;;;;;;16.00;4.00;;;10.70;99.90;;;;;;5095170;28;20467;-69
2021/04/03 10:07:46;;;;;;;14.90;4.83;;;10.60;99.90;;;;;;5095178;28;20576;-68
2021/04/03 10:10:12;;;;;;;13.63;3.70;;;11.20;99.90;;;;;;5095300;28;20178;-70
2021/04/03 10:12:38;;;;;;;15.40;3.97;;;12.10;99.90;;;;;;5095372;28;20552;-69
2021/04/03 10:15:04;;;;;;;14.20;4.17;;;11.30;99.90;;;;;;5095220;28;20198;-70
2021/04/03 10:17:29;;;;;;;14.23;3.20;;;10.90;99.90;;;;;;5094964;28;20175;-69
2021/04/03 10:19:55;;;;;;;16.60;3.93;;;10.70;99.90;;;;;;5095181;28;20456;-72
2021/04/03 10:22:21;;;;;;;9.90;3.33;;;10.80;99.90;;;;;;5094904;28;20602;-70
2021/04/03 10:24:46;;;;;;;15.97;4.20;;;11.50;99.90;;;;;;5093558;28;20188;-68
2021/04/03 10:27:12;;;;;;;7.70;3.67;;;12.50;99.90;;;;;;5094716;28;20404;-69
2021/04/03 10:29:37;;;;;;;19.03;4.50;;;12.70;99.90;;;;;;5094658;28;20255;-68
2021/04/03 10:32:04;;;;;;;19.43;5.30;;;13.30;99.90;;;;;;5094234;28;20255;-69
2021/04/03 10:34:29;;;;;;;10.90;3.67;;;13.30;99.90;;;;;;5094727;28;20171;-69
2021/04/03 10:36:55;;;;;;;8.60;3.20;;;13.20;99.90;;;;;;5095087;28;20417;-69
2021/04/03 10:39:20;;;;;;;17.60;4.03;;;13.00;99.90;;;;;;5094625;28;20195;-69
2021/04/03 10:41:46;;;;;;;9.73;3.80;;;12.10;99.90;;;;;;5094732;28;20167;-69
2021/04/03 10:44:12;;;;;;;11.67;3.30;;;12.10;99.90;;;;;;5094652;28;20202;-69
2021/04/03 10:46:37;;;;;;;12.57;3.80;;;12.50;99.90;;;;;;5094815;28;20164;-69
2021/04/03 10:49:03;;;;;;;6.17;3.43;;;12.40;99.90;;;;;;5094476;28;20178;-68
2021/04/03 10:51:28;;;;;;;14.47;3.90;;;12.40;99.90;;;;;;5094229;28;20513;-68
2021/04/03 10:53:54;;;;;;;10.67;3.60;;;12.40;99.90;;;;;;5094266;28;20195;-68
2021/04/03 10:56:19;;;;;;;11.27;3.20;;;12.70;99.90;;;;;;5094250;28;20719;-68
2021/04/03 10:58:45;;;;;;;10.40;3.17;;;12.60;99.90;;;;;;5094147;28;20171;-68
2021/04/03 11:01:12;;;;;;;12.57;3.23;;;12.70;99.90;;;;;;5092820;28;20176;-68
2021/04/03 11:03:38;;;;;;;16.57;3.73;;;13.00;99.90;;;;;;5093997;28;20425;-68
2021/04/03 11:06:03;;;;;;;10.33;3.77;;;12.50;99.90;;;;;;5092519;28;20433;-69
2021/04/03 11:08:30;;;;;;;8.87;2.67;;;12.90;99.90;;;;;;5093805;28;20467;-68
2021/04/03 11:10:56;;;;;;;11.70;3.60;;;13.30;99.90;;;;;;5094369;28;20171;-69
2021/04/03 11:13:21;;;;;;;12.60;3.70;;;13.50;99.90;;;;;;5093781;28;20467;-68
2021/04/03 11:15:47;;;;;;;8.83;3.50;;;13.90;99.90;;;;;;5093648;28;20169;-69
2021/04/03 11:18:13;;;;;;;11.47;3.53;;;13.20;99.90;;;;;;5093678;28;20663;-69
2021/04/03 11:20:38;;;;;;;5.67;3.47;;;13.20;99.90;;;;;;5093801;28;20484;-69
2021/04/03 11:23:04;;;;;;;11.23;4.93;;;13.60;99.90;;;;;;5092285;28;20195;-69
2021/04/03 11:25:30;;;;;;;11.00;4.20;;;12.70;99.90;;;;;;5093785;28;20206;-69
2021/04/03 11:27:55;;;;;;;13.80;4.60;;;13.20;99.90;;;;;;5093585;28;20167;-69
2021/04/03 11:30:21;;;;;;;15.57;4.80;;;13.40;99.90;;;;;;5092564;28;20172;-69
2021/04/03 11:32:49;;;;;;;10.03;4.67;;;13.30;99.90;;;;;;5093505;28;20207;-69
2021/04/03 11:35:16;;;;;;;11.23;5.03;;;13.30;99.90;;;;;;5093575;28;20409;-69
2021/04/03 11:37:43;;;;;;;20.50;5.37;;;13.60;99.90;;;;;;5094806;28;20405;-69
2021/04/03 11:40:10;;;;;;;15.00;5.70;;;13.00;99.90;;;;;;5093350;28;20794;-69
2021/04/03 11:42:36;;;;;;;13.53;5.50;;;12.70;99.90;;;;;;5093411;28;20430;-68
2021/04/03 11:45:07;;;;;;;10.90;5.30;;;12.90;99.90;;;;;;5093517;28;20485;-68
2021/04/03 11:47:33;;;;;;;12.30;4.63;;;12.50;99.90;;;;;;5093571;28;20473;-68
2021/04/03 11:49:59;;;;;;;15.20;5.80;;;12.30;99.90;;;;;;5093392;28;20930;-69
2021/04/03 11:52:25;;;;;;;12.00;6.00;;;12.20;99.90;;;;;;5093183;28;20468;-69
2021/04/03 11:54:52;;;;;;;13.50;6.23;;;12.70;99.90;;;;;;5093319;28;20773;-68
2021/04/03 11:57:17;;;;;;;14.23;5.43;;;13.60;99.90;;;;;;5093420;28;20405;-70
2021/04/03 11:59:44;;;;;;;20.10;6.23;;;12.40;99.90;;;;;;5091106;28;20453;-68
2021/04/03 12:02:10;;;;;;;17.23;6.67;;;13.30;99.90;;;;;;5092946;28;20160;-69
2021/04/03 12:04:36;;;;;;;17.40;6.47;;;13.70;99.90;;;;;;5093339;28;20844;-69
2021/04/03 12:07:01;;;;;;;10.80;5.53;;;14.00;99.90;;;;;;5092864;28;20253;-69
2021/04/03 12:09:27;;;;;;;12.50;5.03;;;14.20;99.90;;;;;;5093148;28;20188;-69
2021/04/03 12:11:53;;;;;;;9.90;4.27;;;14.40;99.90;;;;;;5092701;28;20171;-69
2021/04/03 12:14:18;;;;;;;7.50;2.70;;;14.20;99.90;;;;;;5092549;28;20202;-68
2021/04/03 12:16:44;;;;;;;4.53;2.30;;;14.00;99.90;;;;;;5092731;28;20402;-69
2021/04/03 12:19:10;;;;;;;6.43;1.80;;;13.40;99.90;;;;;;5093002;28;20602;-69
2021/04/03 12:21:35;;;;;;;14.43;2.77;;;13.60;99.90;;;;;;5092697;28;20160;-69
2021/04/03 12:24:01;;;;;;;6.70;2.20;;;13.60;99.90;;;;;;5092614;28;20194;-69
2021/04/03 12:26:26;;;;;;;6.03;2.10;;;14.10;99.90;;;;;;5092574;28;20214;-68
2021/04/03 12:28:52;;;;;;;8.23;2.80;;;14.30;99.90;;;;;;5092994;28;20160;-69
2021/04/03 12:31:17;;;;;;;6.30;3.40;;;14.50;99.90;;;;;;5093102;28;20164;-69
2021/04/03 12:33:43;;;;;;;5.53;2.20;;;13.80;99.90;;;;;;5092685;28;20183;-69
2021/04/03 12:36:08;;;;;;;7.10;2.80;;;14.10;99.90;;;;;;5092743;28;20166;-69
2021/04/03 12:38:35;;;;;;;6.70;3.00;;;14.40;99.90;;;;;;5092587;28;20256;-69
2021/04/03 12:41:01;;;;;;;8.00;3.90;;;14.50;99.90;;;;;;5092729;28;20502;-69
2021/04/03 12:43:28;;;;;;;7.80;2.50;;;14.50;99.90;;;;;;5092333;28;20430;-69
2021/04/03 12:45:54;;;;;;;9.50;2.80;;;14.30;99.90;;;;;;5092608;28;20403;-69
2021/04/03 12:48:20;;;;;;;4.80;3.10;;;14.50;99.90;;;;;;5093022;28;20984;-69
2021/04/03 12:50:47;;;;;;;8.97;3.33;;;15.10;99.90;;;;;;5092368;28;20177;-69